createdAt,value
2023-04-11T00:00:18.481Z,99.90
2023-04-11T00:03:07.346Z,99.90
2023-04-11T00:05:56.168Z,99.90
2023-04-11T00:08:44.754Z,99.90
2023-04-11T00:11:33.485Z,99.90
2023-04-11T00:14:22.082Z,99.90
2023-04-11T00:17:12.555Z,99.90
2023-04-11T00:20:08.250Z,99.90
2023-04-11T00:22:58.451Z,99.90
2023-04-11T00:25:47.409Z,99.90
2023-04-11T00:28:36.063Z,99.90
2023-04-11T00:31:24.786Z,99.90
2023-04-11T00:34:14.843Z,99.90
2023-04-11T00:37:03.502Z,99.90
2023-04-11T00:39:53.165Z,99.90
2023-04-11T00:42:41.814Z,99.90
2023-04-11T00:45:30.959Z,99.90
2023-04-11T00:48:19.747Z,99.90
2023-04-11T00:51:10.187Z,99.90
2023-04-11T00:53:58.853Z,99.90
2023-04-11T00:56:47.520Z,99.90
2023-04-11T00:59:36.545Z,99.90
2023-04-11T01:02:26.766Z,98.50
2023-04-11T01:05:17.123Z,97.90
2023-04-11T01:08:07.953Z,96.70
2023-04-11T01:10:56.679Z,97.80
2023-04-11T01:13:45.299Z,98.80
2023-04-11T01:16:33.978Z,99.20
2023-04-11T01:19:24.741Z,99.80
2023-04-11T01:22:14.942Z,98.90
2023-04-11T01:25:05.173Z,99.30
2023-04-11T01:27:53.925Z,99.90
2023-04-11T01:30:42.646Z,99.90
2023-04-11T01:33:31.419Z,99.90
2023-04-11T01:36:20.620Z,99.90
2023-04-11T01:39:09.586Z,99.90
2023-04-11T01:42:02.875Z,99.90
2023-04-11T01:44:52.558Z,99.90
2023-04-11T01:47:41.218Z,99.90
2023-04-11T01:50:30.086Z,99.90
2023-04-11T01:53:18.615Z,99.90
2023-04-11T01:56:08.338Z,99.90
2023-04-11T01:58:59.268Z,99.90
2023-04-11T02:01:48.208Z,99.90
2023-04-11T02:04:36.902Z,99.90
2023-04-11T02:07:25.606Z,99.90
2023-04-11T02:10:14.276Z,99.90
2023-04-11T02:13:02.824Z,99.90
2023-04-11T02:15:52.973Z,99.90
2023-04-11T02:18:42.162Z,99.90
2023-04-11T02:21:30.798Z,99.90
2023-04-11T02:24:19.394Z,99.90
2023-04-11T02:27:08.075Z,99.90
2023-04-11T02:29:56.654Z,99.90
2023-04-11T02:32:49.560Z,99.90
2023-04-11T02:35:38.241Z,99.90
2023-04-11T02:38:26.898Z,99.90
2023-04-11T02:41:15.527Z,99.90
2023-04-11T02:44:04.057Z,99.90
2023-04-11T02:46:52.731Z,99.90
2023-04-11T02:49:43.125Z,99.90
2023-04-11T02:52:33.633Z,99.90
2023-04-11T02:55:23.318Z,99.90
2023-04-11T02:58:18.158Z,99.90
2023-04-11T03:01:11.330Z,99.90
2023-04-11T03:04:00.073Z,99.90
2023-04-11T03:06:50.162Z,99.90
2023-04-11T03:09:38.706Z,99.90
2023-04-11T03:12:27.660Z,99.90
2023-04-11T03:15:17.796Z,99.90
2023-04-11T03:18:06.437Z,99.90
2023-04-11T03:20:56.164Z,99.90
2023-04-11T03:23:46.331Z,99.90
2023-04-11T03:26:34.942Z,99.90
2023-04-11T03:29:23.481Z,99.90
2023-04-11T03:32:12.099Z,99.90
2023-04-11T03:35:02.271Z,99.90
2023-04-11T03:37:50.974Z,99.90
2023-04-11T03:40:40.997Z,99.90
2023-04-11T03:43:29.888Z,99.90
2023-04-11T03:46:18.504Z,99.90
2023-04-11T03:49:07.096Z,99.90
2023-04-11T03:51:55.893Z,99.90
2023-04-11T03:54:46.344Z,99.90
2023-04-11T03:57:37.619Z,99.90
2023-04-11T04:00:26.237Z,99.90
2023-04-11T04:03:15.408Z,99.90
2023-04-11T04:06:04.084Z,99.90
2023-04-11T04:08:52.669Z,99.90
2023-04-11T04:11:41.381Z,99.90
2023-04-11T04:14:31.275Z,99.90
2023-04-11T04:17:19.902Z,99.90
2023-04-11T04:20:11.035Z,99.90
2023-04-11T04:23:00.292Z,99.90
2023-04-11T04:25:50.945Z,99.90
2023-04-11T04:28:40.910Z,99.90
2023-04-11T04:31:33.927Z,99.90
2023-04-11T04:34:24.651Z,99.90
2023-04-11T04:37:21.915Z,99.90
2023-04-11T04:40:13.338Z,99.90
2023-04-11T04:43:02.347Z,99.90
2023-04-11T04:45:51.137Z,99.90
2023-04-11T04:48:41.415Z,99.90
2023-04-11T04:51:31.410Z,99.90
2023-04-11T04:54:20.112Z,99.90
2023-04-11T04:57:09.214Z,99.90
2023-04-11T04:59:58.688Z,99.90
2023-04-11T05:02:48.019Z,99.90
2023-04-11T05:05:38.136Z,99.90
2023-04-11T05:08:27.372Z,99.90
2023-04-11T05:11:16.004Z,99.90
2023-04-11T05:14:04.626Z,99.90
2023-04-11T05:16:53.257Z,99.90
2023-04-11T05:19:41.921Z,99.90
2023-04-11T05:22:31.889Z,99.90
2023-04-11T05:25:20.521Z,99.90
2023-04-11T05:28:09.109Z,99.90
2023-04-11T05:30:57.763Z,99.90
2023-04-11T05:33:46.383Z,99.90
2023-04-11T05:36:35.074Z,99.90
2023-04-11T05:39:25.014Z,99.90
2023-04-11T05:42:13.635Z,99.90
2023-04-11T05:45:02.256Z,99.90
2023-04-11T05:47:51.216Z,98.40
2023-04-11T05:50:39.775Z,98.50
2023-04-11T05:53:29.171Z,96.70
2023-04-11T05:56:21.388Z,96.10
2023-04-11T05:59:09.943Z,93.20
2023-04-11T06:01:58.889Z,93.20
2023-04-11T06:04:47.585Z,91.10
2023-04-11T06:07:36.242Z,87.70
2023-04-11T06:10:24.910Z,86.80
2023-04-11T06:13:14.967Z,87.00
2023-04-11T06:16:03.696Z,90.10
2023-04-11T06:18:52.549Z,90.00
2023-04-11T06:21:41.715Z,87.80
2023-04-11T06:24:37.541Z,87.30
2023-04-11T06:27:26.585Z,88.00
2023-04-11T06:30:17.041Z,89.40
2023-04-11T06:33:05.833Z,87.70
2023-04-11T06:35:54.491Z,89.50
2023-04-11T06:38:44.724Z,89.60
2023-04-11T06:41:33.331Z,89.30
2023-04-11T06:44:23.010Z,89.90
2023-04-11T06:51:09.520Z,85.10
2023-04-11T06:53:58.159Z,83.80
2023-04-11T06:56:47.487Z,79.10
2023-04-11T06:59:36.076Z,65.10
2023-04-11T07:02:25.940Z,68.60
2023-04-11T07:05:16.508Z,62.90
2023-04-11T07:08:05.192Z,54.60
2023-04-11T07:10:53.734Z,50.10
2023-04-11T07:13:42.683Z,49.60
2023-04-11T07:16:31.329Z,56.20
2023-04-11T07:19:19.917Z,52.70
2023-04-11T07:22:09.956Z,49.90
2023-04-11T07:24:58.540Z,51.40
2023-04-11T07:27:47.153Z,50.20
2023-04-11T07:30:36.149Z,53.80
2023-04-11T07:33:25.017Z,57.10
2023-04-11T07:36:13.811Z,52.90
2023-04-11T07:39:09.507Z,50.80
2023-04-11T07:41:58.184Z,45.70
2023-04-11T07:44:46.752Z,37.10
2023-04-11T07:47:35.809Z,35.20
2023-04-11T07:50:24.438Z,32.50
2023-04-11T07:53:13.103Z,33.00
2023-04-11T07:56:03.120Z,37.40
2023-04-11T07:58:51.711Z,40.50
2023-04-11T08:01:40.378Z,35.20
2023-04-11T08:04:33.965Z,35.40
2023-04-11T08:07:25.062Z,39.00
2023-04-11T08:10:15.671Z,43.30
2023-04-11T08:13:06.233Z,47.90
2023-04-11T08:15:54.791Z,51.60
2023-04-11T08:18:45.831Z,51.30
2023-04-11T08:21:34.605Z,51.10
2023-04-11T08:24:23.230Z,53.50
2023-04-11T08:27:11.870Z,62.00
2023-04-11T08:30:01.986Z,68.30
2023-04-11T08:32:51.412Z,70.40
2023-04-11T08:35:43.127Z,67.40
2023-04-11T08:38:32.032Z,62.20
2023-04-11T08:41:20.569Z,55.80
2023-04-11T08:44:13.018Z,60.80
2023-04-11T08:47:03.147Z,61.90
2023-04-11T08:49:52.477Z,63.20
2023-04-11T08:52:42.474Z,65.50
2023-04-11T08:55:32.968Z,58.70
2023-04-11T08:58:21.609Z,43.50
2023-04-11T09:01:32.233Z,26.20
2023-04-11T09:04:22.551Z,28.00
2023-04-11T09:07:12.840Z,37.20
2023-04-11T09:10:22.254Z,32.60
2023-04-11T09:13:21.502Z,12.60
2023-04-11T09:16:12.138Z,12.60
2023-04-11T09:19:00.899Z,2.30
2023-04-11T09:21:51.475Z,1.00
2023-04-11T09:24:41.226Z,1.00
2023-04-11T09:27:30.449Z,1.00
2023-04-11T09:30:23.934Z,1.00
2023-04-11T09:33:24.259Z,1.00
2023-04-11T09:36:21.074Z,1.00
2023-04-11T09:39:20.559Z,1.00
2023-04-11T09:42:25.416Z,1.00
2023-04-11T09:45:21.650Z,1.00
2023-04-11T09:48:10.562Z,1.00
2023-04-11T09:50:59.674Z,1.00
2023-04-11T09:53:48.587Z,1.00
2023-04-11T09:56:38.799Z,1.00
2023-04-11T09:59:28.513Z,1.00
2023-04-11T10:02:17.200Z,1.00
2023-04-11T10:05:07.807Z,1.00
2023-04-11T10:08:03.808Z,1.00
2023-04-11T10:10:53.198Z,1.00
2023-04-11T10:13:44.237Z,1.00
2023-04-11T10:16:34.340Z,1.00
2023-04-11T10:19:27.331Z,1.00
2023-04-11T10:23:00.959Z,1.00
2023-04-11T10:25:51.271Z,1.00
2023-04-11T10:28:41.033Z,1.00
2023-04-11T10:31:30.997Z,1.00
2023-04-11T10:34:37.614Z,1.00
2023-04-11T10:37:33.937Z,1.00
2023-04-11T10:40:23.001Z,1.00
2023-04-11T10:43:21.770Z,1.00
2023-04-11T10:46:21.536Z,1.00
2023-04-11T10:49:11.667Z,1.00
2023-04-11T10:52:18.899Z,1.00
2023-04-11T10:55:17.830Z,1.00
2023-04-11T10:58:08.228Z,1.00
2023-04-11T11:01:37.244Z,1.00
2023-04-11T11:04:36.813Z,1.00
2023-04-11T11:07:27.135Z,1.00
2023-04-11T11:10:16.038Z,1.00
2023-04-11T11:13:05.142Z,1.00
2023-04-11T11:15:53.813Z,1.00
2023-04-11T11:18:45.465Z,1.00
2023-04-11T11:21:35.652Z,1.00
2023-04-11T11:24:26.234Z,1.00
2023-04-11T11:27:21.196Z,1.00
2023-04-11T11:30:13.707Z,1.00
2023-04-11T11:33:15.874Z,1.00
2023-04-11T11:36:07.184Z,1.00
2023-04-11T11:38:57.612Z,1.00
2023-04-11T11:41:46.708Z,1.00
2023-04-11T11:44:35.340Z,1.00
2023-04-11T11:47:25.912Z,1.00
2023-04-11T11:50:26.690Z,1.00
2023-04-11T11:53:16.549Z,1.00
2023-04-11T11:56:16.459Z,1.00
2023-04-11T11:59:06.019Z,1.00
2023-04-11T12:01:54.732Z,1.00
2023-04-11T12:04:43.602Z,1.00
2023-04-11T12:07:33.593Z,1.00
2023-04-11T12:10:22.256Z,1.00
2023-04-11T12:13:20.712Z,1.00
2023-04-11T12:16:09.670Z,1.00
2023-04-11T12:18:59.755Z,1.00
2023-04-11T12:21:50.558Z,1.00
2023-04-11T12:24:41.281Z,1.00
2023-04-11T12:27:30.407Z,1.00
2023-04-11T12:30:20.895Z,1.00
2023-04-11T12:33:11.312Z,1.00
2023-04-11T12:36:00.981Z,1.00
2023-04-11T12:38:49.537Z,1.00
2023-04-11T12:41:38.127Z,1.00
2023-04-11T12:44:26.726Z,1.00
2023-04-11T12:47:16.758Z,1.00
2023-04-11T12:50:07.255Z,1.00
2023-04-11T12:52:56.480Z,1.00
2023-04-11T12:55:45.169Z,1.00
2023-04-11T12:58:33.980Z,1.00
2023-04-11T13:01:28.954Z,1.00
2023-04-11T13:04:19.108Z,1.00
2023-04-11T13:07:10.283Z,1.00
2023-04-11T13:09:58.836Z,1.00
2023-04-11T13:12:48.622Z,1.00
2023-04-11T13:15:37.210Z,1.00
2023-04-11T13:18:25.758Z,1.00
2023-04-11T13:21:15.866Z,1.00
2023-04-11T13:24:04.590Z,1.00
2023-04-11T13:26:53.199Z,1.00
2023-04-11T13:29:41.787Z,1.00
2023-04-11T13:32:30.442Z,1.00
2023-04-11T13:35:19.082Z,1.00
2023-04-11T13:38:11.198Z,1.00
2023-04-11T13:41:00.127Z,1.00
2023-04-11T13:43:49.303Z,1.00
2023-04-11T13:46:37.894Z,1.00
2023-04-11T13:49:26.546Z,1.00
2023-04-11T13:52:15.169Z,1.00
2023-04-11T13:55:05.671Z,1.00
2023-04-11T13:57:54.272Z,1.00
2023-04-11T14:00:42.885Z,1.00
2023-04-11T14:03:36.015Z,1.00
2023-04-11T14:06:29.153Z,1.00
2023-04-11T14:09:17.713Z,1.00
2023-04-11T14:12:08.411Z,1.00
2023-04-11T14:14:57.014Z,1.00
2023-04-11T14:17:47.718Z,1.00
2023-04-11T14:20:36.525Z,1.00
2023-04-11T14:23:25.773Z,1.00
2023-04-11T14:26:14.393Z,1.00
2023-04-11T14:29:04.501Z,1.00
2023-04-11T14:31:53.322Z,1.00
2023-04-11T14:34:41.930Z,1.00
2023-04-11T14:37:30.549Z,1.00
2023-04-11T14:40:19.655Z,1.00
2023-04-11T14:43:08.234Z,1.00
2023-04-11T14:45:58.627Z,1.00
2023-04-11T14:48:47.190Z,1.00
2023-04-11T14:51:36.718Z,1.00
2023-04-11T14:54:26.046Z,1.00
2023-04-11T14:57:14.676Z,1.00
2023-04-11T15:00:06.416Z,1.00
2023-04-11T15:02:57.668Z,1.00
2023-04-11T15:05:46.360Z,1.00
2023-04-11T15:08:35.071Z,1.00
2023-04-11T15:11:23.738Z,1.00
2023-04-11T15:14:12.279Z,1.00
2023-04-11T15:17:00.919Z,1.00
2023-04-11T15:19:50.867Z,1.00
2023-04-11T15:22:41.492Z,1.00
2023-04-11T15:25:30.329Z,1.00
2023-04-11T15:28:18.928Z,1.00
2023-04-11T15:31:09.540Z,1.00
2023-04-11T15:34:01.357Z,1.00
2023-04-11T15:36:51.369Z,1.00
2023-04-11T15:39:39.915Z,1.00
2023-04-11T15:42:28.488Z,1.00
2023-04-11T15:45:17.132Z,1.00
2023-04-11T15:48:05.888Z,1.00
2023-04-11T15:50:54.472Z,1.00
2023-04-11T15:53:44.509Z,1.00
2023-04-11T15:56:34.521Z,1.00
2023-04-11T15:59:33.782Z,1.00
2023-04-11T16:02:22.485Z,1.00
2023-04-11T16:05:11.534Z,1.00
2023-04-11T16:08:00.725Z,1.00
2023-04-11T16:10:50.786Z,1.00
2023-04-11T16:13:39.454Z,1.00
2023-04-11T16:16:28.480Z,1.00
2023-04-11T16:19:17.072Z,1.00
2023-04-11T16:22:05.669Z,1.00
2023-04-11T16:24:56.323Z,1.00
2023-04-11T16:27:46.435Z,1.00
2023-04-11T16:30:34.981Z,1.00
2023-04-11T16:33:23.934Z,1.00
2023-04-11T16:36:13.128Z,1.00
2023-04-11T16:39:01.786Z,1.00
2023-04-11T16:41:50.421Z,1.00
2023-04-11T16:44:40.379Z,1.00
2023-04-11T16:47:29.014Z,1.00
2023-04-11T16:50:17.977Z,1.00
2023-04-11T16:53:06.656Z,1.00
2023-04-11T16:55:55.785Z,1.00
2023-04-11T16:58:44.394Z,1.00
2023-04-11T17:01:34.412Z,1.00
2023-04-11T17:04:23.163Z,1.00
2023-04-11T17:07:13.121Z,1.00
2023-04-11T17:10:02.163Z,1.00
2023-04-11T17:12:50.932Z,1.00
2023-04-11T17:15:39.491Z,1.00
2023-04-11T17:18:29.426Z,1.00
2023-04-11T17:21:18.134Z,1.00
2023-04-11T17:24:06.878Z,1.00
2023-04-11T17:26:56.987Z,1.00
2023-04-11T17:29:45.569Z,1.00
2023-04-11T17:32:35.938Z,1.00
2023-04-11T17:35:27.940Z,1.00
2023-04-11T17:38:17.908Z,1.00
2023-04-11T17:41:14.462Z,1.00
2023-04-11T17:44:03.901Z,1.00
2023-04-11T17:46:52.628Z,1.70
2023-04-11T17:49:41.282Z,2.90
2023-04-11T17:52:31.257Z,4.70
2023-04-11T17:55:20.843Z,5.00
2023-04-11T17:58:09.523Z,4.60
2023-04-11T18:00:58.084Z,6.30
2023-04-11T18:03:47.267Z,7.80
2023-04-11T18:06:35.961Z,7.60
2023-04-11T18:09:31.899Z,5.00
2023-04-11T18:12:20.580Z,5.70
2023-04-11T18:15:18.454Z,6.90
2023-04-11T18:18:09.841Z,8.70
2023-04-11T18:21:06.550Z,9.70
2023-04-11T18:23:56.382Z,6.50
2023-04-11T18:26:47.110Z,6.50
2023-04-11T18:29:35.754Z,6.00
2023-04-11T18:32:26.757Z,7.50
2023-04-11T18:35:17.311Z,8.20
2023-04-11T18:38:06.530Z,9.20
2023-04-11T18:40:56.431Z,9.50
2023-04-11T18:43:47.246Z,9.70
2023-04-11T18:46:35.789Z,9.60
2023-04-11T18:49:24.451Z,8.00
2023-04-11T18:52:14.010Z,8.20
2023-04-11T18:55:03.462Z,8.60
2023-04-11T18:57:54.882Z,8.80
2023-04-11T19:00:49.403Z,7.40
2023-04-11T19:03:50.295Z,8.90
2023-04-11T19:06:39.197Z,7.00
2023-04-11T19:09:28.336Z,4.50
2023-04-11T19:12:17.287Z,5.90
2023-04-11T19:15:08.046Z,5.00
2023-04-11T19:17:58.670Z,4.80
2023-04-11T19:20:47.380Z,2.40
2023-04-11T19:23:36.185Z,4.90
2023-04-11T19:26:27.545Z,4.10
2023-04-11T19:29:16.361Z,2.70
2023-04-11T19:32:05.503Z,2.90
2023-04-11T19:34:55.652Z,4.10
2023-04-11T19:37:44.413Z,3.40
2023-04-11T19:40:33.034Z,3.10
2023-04-11T19:43:22.057Z,3.50
2023-04-11T19:46:12.160Z,1.70
2023-04-11T19:49:00.904Z,2.40
2023-04-11T19:51:51.065Z,2.50
2023-04-11T19:54:40.040Z,2.70
2023-04-11T19:57:29.141Z,1.80
2023-04-11T20:00:18.669Z,1.10
2023-04-11T20:03:09.734Z,1.70
2023-04-11T20:05:58.666Z,2.60
2023-04-11T20:08:48.713Z,2.90
2023-04-11T20:11:37.812Z,3.40
2023-04-11T20:14:26.452Z,2.50
2023-04-11T20:17:15.011Z,3.50
2023-04-11T20:20:06.624Z,3.90
2023-04-11T20:22:55.501Z,4.00
2023-04-11T20:25:45.603Z,4.90
2023-04-11T20:28:34.271Z,4.30
2023-04-11T20:31:22.943Z,5.00
2023-04-11T20:34:11.706Z,5.30
2023-04-11T20:37:01.234Z,5.60
2023-04-11T20:39:51.017Z,5.90
2023-04-11T20:42:42.834Z,5.90
2023-04-11T20:45:33.111Z,6.50
2023-04-11T20:48:21.734Z,5.20
2023-04-11T20:51:10.345Z,6.30
2023-04-11T20:53:59.092Z,7.20
2023-04-11T20:56:59.550Z,7.60
2023-04-11T20:59:50.569Z,7.90
2023-04-11T21:02:39.446Z,8.30
2023-04-11T21:05:28.517Z,8.70
2023-04-11T21:08:17.333Z,9.50
2023-04-11T21:11:06.456Z,10.00
2023-04-11T21:13:56.044Z,10.00
2023-04-11T21:16:46.171Z,10.40
2023-04-11T21:19:36.478Z,10.90
2023-04-11T21:22:25.188Z,11.70
2023-04-11T21:25:13.874Z,12.10
2023-04-11T21:28:02.424Z,11.80
2023-04-11T21:30:51.127Z,13.00
2023-04-11T21:33:41.178Z,14.10
2023-04-11T21:36:29.820Z,15.70
2023-04-11T21:39:18.425Z,16.60
2023-04-11T21:42:07.072Z,16.10
2023-04-11T21:44:55.708Z,15.70
2023-04-11T21:47:44.382Z,16.50
2023-04-11T21:50:34.467Z,16.80
2023-04-11T21:53:23.017Z,16.10
2023-04-11T21:56:11.648Z,16.00
2023-04-11T21:59:00.267Z,16.10
2023-04-11T22:01:48.995Z,15.30
2023-04-11T22:04:51.362Z,15.70
2023-04-11T22:07:47.833Z,15.20
2023-04-11T22:10:47.433Z,15.50
2023-04-11T22:13:38.284Z,14.60
2023-04-11T22:16:30.876Z,15.00
2023-04-11T22:19:19.804Z,14.70
2023-04-11T22:22:08.438Z,14.80
2023-04-11T22:24:59.304Z,14.10
2023-04-11T22:27:47.833Z,14.90
2023-04-11T22:30:38.228Z,15.50
2023-04-11T22:33:26.884Z,15.90
2023-04-11T22:36:15.492Z,16.20
2023-04-11T22:39:04.687Z,16.10
2023-04-11T22:41:55.541Z,15.70
2023-04-11T22:44:44.152Z,16.20
2023-04-11T22:47:34.511Z,16.00
2023-04-11T22:50:23.353Z,16.20
2023-04-11T22:53:14.125Z,16.80
2023-04-11T22:56:03.230Z,16.60
2023-04-11T22:58:54.261Z,16.50
2023-04-11T23:01:44.803Z,17.20
2023-04-11T23:04:33.753Z,16.40
2023-04-11T23:07:22.397Z,15.80
2023-04-11T23:10:14.134Z,15.90
2023-04-11T23:13:03.694Z,14.70
2023-04-11T23:15:54.879Z,14.80
2023-04-11T23:18:43.459Z,14.50
2023-04-11T23:21:32.145Z,14.30
2023-04-11T23:24:20.705Z,14.20
2023-04-11T23:27:09.323Z,14.50
2023-04-11T23:29:58.856Z,14.80
2023-04-11T23:32:48.881Z,15.90
2023-04-11T23:35:37.918Z,15.80
2023-04-11T23:38:26.598Z,16.20
2023-04-11T23:41:15.896Z,18.20
2023-04-11T23:44:04.516Z,17.30
2023-04-11T23:46:53.097Z,18.60
2023-04-11T23:49:44.348Z,20.60
2023-04-11T23:52:33.048Z,23.60
2023-04-11T23:55:22.427Z,23.40
2023-04-11T23:58:11.118Z,24.70
